Time;durP1;ratioP1;P1;durP2;ratioP2;P2;SDS_P1;SDS_P2;PMS_P1;PMS_P2;Temp;Humidity;BMP_temperature;BMP_pressure;BME280_temperature;BME280_humidity;BME280_pressure;Samples;Min_cycle;Max_cycle;Signal;HPM_P1;HPM_P2
2024/03/12 00:01:40;;;;;;;7.20;4.28;;;;;;;;;;5077299;28;20035;-76
2024/03/12 00:04:09;;;;;;;7.53;3.97;;;;;;;;;;5078029;28;20024;-76
2024/03/12 00:06:35;;;;;;;7.65;4.43;;;;;;;;;;5059428;28;20088;-75
2024/03/12 00:09:09;;;;;;;8.75;5.00;;;;;;;;;;5077684;28;20530;-76
2024/03/12 00:11:35;;;;;;;9.68;4.78;;;;;;;;;;5059859;28;20050;-75
2024/03/12 00:14:01;;;;;;;10.55;4.25;;;;;;;;;;5059182;28;20029;-76
2024/03/12 00:16:28;;;;;;;9.77;4.40;;;;;;;;;;5042191;28;20142;-77
2024/03/12 00:18:55;;;;;;;11.95;4.70;;;;;;;;;;5077656;28;20021;-77
2024/03/12 00:21:21;;;;;;;7.28;4.20;;;;;;;;;;5059660;28;20115;-77
2024/03/12 00:23:47;;;;;;;7.10;4.55;;;;;;;;;;5042916;28;20064;-74
2024/03/12 00:26:14;;;;;;;9.85;4.63;;;;;;;;;;5042290;28;20028;-75
2024/03/12 00:28:41;;;;;;;8.07;4.38;;;;;;;;;;5080094;28;20021;-78
2024/03/12 00:31:08;;;;;;;7.35;4.80;;;;;;;;;;5062516;28;20025;-75
2024/03/12 00:33:34;;;;;;;7.32;4.80;;;;;;;;;;5080477;28;20033;-75
2024/03/12 00:36:00;;;;;;;7.28;4.00;;;;;;;;;;5062567;28;20127;-76
2024/03/12 00:38:28;;;;;;;6.60;3.78;;;;;;;;;;5080604;28;20032;-77
2024/03/12 00:40:54;;;;;;;4.70;3.42;;;;;;;;;;5062386;28;20044;-75
2024/03/12 00:43:23;;;;;;;5.40;3.10;;;;;;;;;;5063154;28;20021;-76
2024/03/12 00:45:48;;;;;;;4.65;3.25;;;;;;;;;;5063215;28;20029;-74
2024/03/12 00:48:15;;;;;;;6.22;3.40;;;;;;;;;;5062797;28;20111;-75
2024/03/12 00:50:45;;;;;;;8.32;3.45;;;;;;;;;;5080590;28;20037;-75
2024/03/12 00:53:11;;;;;;;9.32;3.80;;;;;;;;;;5063546;28;20024;-78
2024/03/12 00:55:37;;;;;;;6.75;3.85;;;;;;;;;;5062797;28;20163;-76
2024/03/12 00:58:07;;;;;;;7.93;3.38;;;;;;;;;;5062484;28;20052;-74
2024/03/12 01:00:36;;;;;;;5.00;3.08;;;;;;;;;;5062489;28;20036;-74
2024/03/12 01:03:18;;;;;;;4.97;3.22;;;;;;;;;;5078427;28;20031;-76
2024/03/12 01:05:44;;;;;;;5.82;3.10;;;;;;;;;;5063112;28;20092;-76
2024/03/12 01:08:12;;;;;;;6.88;2.75;;;;;;;;;;5063049;28;20029;-76
2024/03/12 01:10:39;;;;;;;6.43;3.08;;;;;;;;;;5081152;28;20017;-76
2024/03/12 01:13:11;;;;;;;8.43;2.67;;;;;;;;;;5079440;28;20020;-76
2024/03/12 01:15:36;;;;;;;5.55;2.90;;;;;;;;;;5063038;28;20032;-75
2024/03/12 01:18:07;;;;;;;6.72;2.72;;;;;;;;;;5080411;28;20031;-76
2024/03/12 01:20:34;;;;;;;4.75;2.95;;;;;;;;;;5062403;28;20020;-74
2024/03/12 01:23:00;;;;;;;5.38;2.70;;;;;;;;;;5062784;28;20387;-76
2024/03/12 01:25:29;;;;;;;8.75;3.42;;;;;;;;;;5079714;28;20030;-76
2024/03/12 01:27:57;;;;;;;5.55;2.83;;;;;;;;;;5062662;28;20052;-75
2024/03/12 01:30:26;;;;;;;5.05;3.30;;;;;;;;;;5061496;28;20548;-76
2024/03/12 01:32:52;;;;;;;5.72;2.50;;;;;;;;;;5080189;28;20133;-76
2024/03/12 01:35:20;;;;;;;4.45;2.75;;;;;;;;;;5078795;28;20024;-74
2024/03/12 01:37:49;;;;;;;7.18;2.50;;;;;;;;;;5061069;28;20028;-74
2024/03/12 01:40:19;;;;;;;6.78;2.88;;;;;;;;;;5060012;28;20031;-75
2024/03/12 01:43:06;;;;;;;3.03;2.33;;;;;;;;;;5060128;28;20016;-75
2024/03/12 01:45:33;;;;;;;7.63;2.65;;;;;;;;;;5060237;28;20043;-76
2024/03/12 01:48:03;;;;;;;6.28;2.85;;;;;;;;;;5078201;28;20111;-75
2024/03/12 01:50:31;;;;;;;3.90;2.38;;;;;;;;;;5078582;28;20089;-75
2024/03/12 01:52:59;;;;;;;7.38;2.80;;;;;;;;;;5061320;28;20020;-75
2024/03/12 01:55:26;;;;;;;6.80;2.22;;;;;;;;;;5061283;28;20648;-75
2024/03/12 01:57:52;;;;;;;4.15;2.53;;;;;;;;;;5078146;28;20021;-76
2024/03/12 02:00:20;;;;;;;5.88;2.85;;;;;;;;;;5060550;28;20104;-75
2024/03/12 02:02:50;;;;;;;4.75;2.33;;;;;;;;;;5060717;28;20439;-75
2024/03/12 02:05:16;;;;;;;5.78;2.45;;;;;;;;;;5060341;28;20024;-74
2024/03/12 02:07:47;;;;;;;3.63;2.10;;;;;;;;;;5060702;28;20445;-75
2024/03/12 02:10:17;;;;;;;4.18;2.25;;;;;;;;;;5060865;28;20460;-76
2024/03/12 02:12:46;;;;;;;4.38;2.30;;;;;;;;;;5078583;28;20024;-74
2024/03/12 02:15:13;;;;;;;4.65;2.35;;;;;;;;;;5078606;28;20025;-74
2024/03/12 02:17:40;;;;;;;6.88;1.92;;;;;;;;;;5060210;28;20028;-75
2024/03/12 02:20:09;;;;;;;4.28;1.83;;;;;;;;;;5059509;28;20413;-75
2024/03/12 02:22:36;;;;;;;4.40;1.98;;;;;;;;;;5059428;28;20035;-73
2024/03/12 02:25:06;;;;;;;4.13;2.03;;;;;;;;;;5077620;28;20050;-76
2024/03/12 02:27:31;;;;;;;6.40;2.10;;;;;;;;;;5061035;28;20476;-76
2024/03/12 02:29:57;;;;;;;2.88;1.95;;;;;;;;;;5059712;28;20035;-76
2024/03/12 02:32:23;;;;;;;4.03;2.22;;;;;;;;;;5059626;28;20017;-75
2024/03/12 02:34:50;;;;;;;5.20;2.17;;;;;;;;;;5077156;28;20028;-75
2024/03/12 02:37:16;;;;;;;3.92;2.17;;;;;;;;;;5076986;28;20115;-75
2024/03/12 02:39:43;;;;;;;7.78;2.42;;;;;;;;;;5077178;28;20428;-75
2024/03/12 02:42:08;;;;;;;4.18;1.98;;;;;;;;;;5077746;28;20034;-76
2024/03/12 02:44:36;;;;;;;3.92;2.13;;;;;;;;;;5060016;28;20024;-75
2024/03/12 02:47:03;;;;;;;4.88;2.13;;;;;;;;;;5078121;28;20025;-76
2024/03/12 02:49:29;;;;;;;3.78;2.30;;;;;;;;;;5077869;28;20936;-74
2024/03/12 02:51:54;;;;;;;8.13;2.28;;;;;;;;;;5058952;28;20136;-75
2024/03/12 02:54:25;;;;;;;2.40;1.70;;;;;;;;;;5059066;28;20369;-74
2024/03/12 02:56:51;;;;;;;4.32;1.98;;;;;;;;;;5077775;28;20017;-76
2024/03/12 02:59:17;;;;;;;2.10;1.63;;;;;;;;;;5077566;28;20020;-76
2024/03/12 03:01:42;;;;;;;2.67;1.73;;;;;;;;;;5059308;28;20465;-73
2024/03/12 03:04:09;;;;;;;4.93;2.10;;;;;;;;;;5077663;28;20094;-75
2024/03/12 03:06:37;;;;;;;4.45;2.40;;;;;;;;;;5076841;28;20058;-74
2024/03/12 03:09:07;;;;;;;3.25;2.08;;;;;;;;;;5076623;28;20524;-74
2024/03/12 03:11:34;;;;;;;4.13;2.33;;;;;;;;;;5077145;28;20327;-75
2024/03/12 03:14:02;;;;;;;3.20;2.03;;;;;;;;;;5058762;28;20028;-75
2024/03/12 03:16:28;;;;;;;3.33;2.00;;;;;;;;;;5077695;28;20016;-73
2024/03/12 03:18:57;;;;;;;4.65;2.00;;;;;;;;;;5076972;28;20028;-75
2024/03/12 03:21:22;;;;;;;2.72;2.10;;;;;;;;;;5077569;28;20067;-74
2024/03/12 03:23:48;;;;;;;2.63;2.08;;;;;;;;;;5058956;28;20558;-76
2024/03/12 03:26:14;;;;;;;2.33;1.88;;;;;;;;;;5076039;28;20021;-75
2024/03/12 03:28:39;;;;;;;3.38;2.00;;;;;;;;;;5059263;28;20376;-75
2024/03/12 03:31:06;;;;;;;3.22;2.30;;;;;;;;;;5058588;28;20032;-75
2024/03/12 03:33:32;;;;;;;2.75;2.08;;;;;;;;;;5058615;28;20059;-75
2024/03/12 03:35:58;;;;;;;5.47;2.15;;;;;;;;;;5076594;28;20388;-74
2024/03/12 03:38:27;;;;;;;3.25;2.05;;;;;;;;;;5058650;28;20020;-76
2024/03/12 03:40:53;;;;;;;7.40;2.38;;;;;;;;;;5076160;28;20069;-75
2024/03/12 03:43:19;;;;;;;3.40;1.85;;;;;;;;;;5076883;28;20052;-75
2024/03/12 03:45:44;;;;;;;2.85;2.10;;;;;;;;;;5058591;28;20346;-75
2024/03/12 03:48:10;;;;;;;3.67;2.17;;;;;;;;;;5058714;28;20484;-75
2024/03/12 03:50:36;;;;;;;1.92;1.48;;;;;;;;;;5076606;28;20028;-75
2024/03/12 03:53:02;;;;;;;3.53;1.77;;;;;;;;;;5076637;28;20024;-75
2024/03/12 03:55:27;;;;;;;2.97;1.63;;;;;;;;;;5059100;28;20419;-75
2024/03/12 03:57:53;;;;;;;2.63;1.52;;;;;;;;;;5076545;28;20052;-76
2024/03/12 04:00:31;;;;;;;3.97;2.13;;;;;;;;;;5058671;28;20040;-77
2024/03/12 04:02:57;;;;;;;6.18;1.60;;;;;;;;;;5079057;28;20494;-77
2024/03/12 04:05:23;;;;;;;2.85;1.92;;;;;;;;;;5080684;28;20047;-76
2024/03/12 04:07:49;;;;;;;3.97;1.63;;;;;;;;;;5062785;28;20033;-75
2024/03/12 04:10:17;;;;;;;2.60;1.75;;;;;;;;;;5081427;28;20046;-75
2024/03/12 04:12:47;;;;;;;2.88;1.75;;;;;;;;;;5081715;28;20048;-74
2024/03/12 04:15:13;;;;;;;3.72;1.80;;;;;;;;;;5080530;28;20121;-76
2024/03/12 04:17:42;;;;;;;2.90;1.90;;;;;;;;;;5080293;28;20508;-74
2024/03/12 04:20:10;;;;;;;3.65;2.05;;;;;;;;;;5062793;28;20051;-75
2024/03/12 04:22:39;;;;;;;2.55;1.55;;;;;;;;;;5062283;28;20033;-76
2024/03/12 04:25:07;;;;;;;7.20;1.90;;;;;;;;;;5080058;28;20108;-75
2024/03/12 04:27:33;;;;;;;2.88;1.75;;;;;;;;;;5081436;28;20031;-75
2024/03/12 04:29:59;;;;;;;3.05;1.60;;;;;;;;;;5062951;28;20028;-78
2024/03/12 04:32:27;;;;;;;3.25;1.90;;;;;;;;;;5080688;28;20035;-76
2024/03/12 04:34:55;;;;;;;4.22;1.70;;;;;;;;;;5079982;28;20027;-76
2024/03/12 04:37:22;;;;;;;4.60;1.80;;;;;;;;;;5062355;28;20023;-76
2024/03/12 04:39:48;;;;;;;3.63;2.20;;;;;;;;;;5046063;28;20022;-76
2024/03/12 04:42:13;;;;;;;5.07;1.70;;;;;;;;;;5079728;28;20038;-76
2024/03/12 04:44:39;;;;;;;11.10;2.67;;;;;;;;;;5079983;28;20464;-75
2024/03/12 04:47:05;;;;;;;3.70;2.13;;;;;;;;;;5061787;28;20384;-76
2024/03/12 04:49:30;;;;;;;3.55;1.63;;;;;;;;;;5061978;28;20028;-76
2024/03/12 04:51:56;;;;;;;2.33;1.75;;;;;;;;;;5079787;28;20020;-76
2024/03/12 04:54:21;;;;;;;7.82;1.98;;;;;;;;;;5079602;28;20075;-75
2024/03/12 04:56:48;;;;;;;3.60;1.90;;;;;;;;;;5062141;28;20024;-73
2024/03/12 04:59:16;;;;;;;3.70;2.20;;;;;;;;;;5062102;28;20105;-76
2024/03/12 05:01:47;;;;;;;2.97;1.80;;;;;;;;;;5079034;28;20485;-75
2024/03/12 05:04:13;;;;;;;3.60;1.90;;;;;;;;;;5079738;28;20063;-75
2024/03/12 05:06:42;;;;;;;3.00;2.03;;;;;;;;;;5079352;28;20039;-74
2024/03/12 05:09:08;;;;;;;4.57;2.10;;;;;;;;;;5062072;28;20020;-75
2024/03/12 05:11:37;;;;;;;2.72;2.20;;;;;;;;;;5061442;28;20078;-76
2024/03/12 05:14:03;;;;;;;2.50;1.92;;;;;;;;;;5078630;28;20074;-75
2024/03/12 05:16:31;;;;;;;1.95;1.65;;;;;;;;;;5061423;28;20025;-75
2024/03/12 05:18:57;;;;;;;2.72;2.05;;;;;;;;;;5061807;28;20384;-75
2024/03/12 05:21:22;;;;;;;2.88;2.05;;;;;;;;;;5060894;28;20039;-75
2024/03/12 05:23:51;;;;;;;2.45;1.92;;;;;;;;;;5061101;28;20353;-75
2024/03/12 05:26:17;;;;;;;8.07;2.00;;;;;;;;;;5079541;28;20025;-75
2024/03/12 05:28:43;;;;;;;4.38;2.33;;;;;;;;;;5061567;28;20028;-75
2024/03/12 05:31:09;;;;;;;4.13;1.95;;;;;;;;;;5043856;28;20028;-77
2024/03/12 05:33:38;;;;;;;3.83;1.90;;;;;;;;;;5060837;28;20028;-74
2024/03/12 05:36:09;;;;;;;3.75;2.67;;;;;;;;;;5044533;28;20028;-75
2024/03/12 05:38:37;;;;;;;8.05;3.05;;;;;;;;;;5079124;28;20476;-75
2024/03/12 05:49:08;;;;;;;7.60;3.30;;;;;;;;;;5078815;28;20100;-76
2024/03/12 05:51:36;;;;;;;5.95;2.70;;;;;;;;;;5059812;28;20040;-75
2024/03/12 05:54:01;;;;;;;7.53;2.90;;;;;;;;;;5060464;28;20024;-75
2024/03/12 05:56:29;;;;;;;10.40;3.75;;;;;;;;;;5060909;28;20052;-75
2024/03/12 05:58:54;;;;;;;8.77;3.88;;;;;;;;;;5078700;28;20028;-77
2024/03/12 06:01:23;;;;;;;7.55;4.53;;;;;;;;;;5078570;28;20032;-75
2024/03/12 06:03:50;;;;;;;7.30;3.22;;;;;;;;;;5060508;28;20032;-78
2024/03/12 06:06:19;;;;;;;10.63;3.40;;;;;;;;;;5078561;28;20040;-76
2024/03/12 06:08:45;;;;;;;4.88;2.90;;;;;;;;;;5059984;28;20028;-75
2024/03/12 06:11:12;;;;;;;6.05;2.85;;;;;;;;;;5059905;28;20354;-74
2024/03/12 06:13:38;;;;;;;8.85;3.38;;;;;;;;;;5060911;28;20469;-75
2024/03/12 06:16:05;;;;;;;4.82;2.85;;;;;;;;;;5060055;28;20028;-75
2024/03/12 06:18:30;;;;;;;5.95;2.85;;;;;;;;;;5077905;28;20362;-76
2024/03/12 06:20:57;;;;;;;5.45;3.00;;;;;;;;;;5061031;28;20035;-74
2024/03/12 06:23:23;;;;;;;9.13;3.80;;;;;;;;;;5042540;28;20033;-78
2024/03/12 06:25:50;;;;;;;9.52;2.67;;;;;;;;;;5056020;28;20469;-76
2024/03/12 06:28:16;;;;;;;5.03;2.78;;;;;;;;;;5067199;28;20107;-76
2024/03/12 06:30:43;;;;;;;10.57;2.92;;;;;;;;;;5078250;28;20055;-75
2024/03/12 06:33:09;;;;;;;6.68;2.70;;;;;;;;;;5061890;28;20487;-75
2024/03/12 06:35:35;;;;;;;7.90;4.57;;;;;;;;;;5080153;28;20052;-78
2024/03/12 06:38:06;;;;;;;6.22;2.90;;;;;;;;;;5080464;28;20036;-76
2024/03/12 06:40:34;;;;;;;8.85;3.30;;;;;;;;;;5079773;28;20028;-76
2024/03/12 06:43:00;;;;;;;6.55;2.72;;;;;;;;;;5077756;28;20056;-74
2024/03/12 06:45:27;;;;;;;4.57;2.55;;;;;;;;;;5086343;28;20054;-78
2024/03/12 06:47:55;;;;;;;23.38;8.48;;;;;;;;;;5071729;28;20033;-78
2024/03/12 06:50:25;;;;;;;8.10;3.53;;;;;;;;;;5056576;28;20476;-77
2024/03/12 06:52:57;;;;;;;8.45;2.75;;;;;;;;;;5064474;28;20028;-75
2024/03/12 06:55:27;;;;;;;11.30;2.58;;;;;;;;;;5077428;28;20114;-76
2024/03/12 06:58:07;;;;;;;6.38;2.70;;;;;;;;;;5058903;28;20034;-77
2024/03/12 07:00:36;;;;;;;8.52;3.60;;;;;;;;;;5076706;28;20024;-75
2024/03/12 07:03:09;;;;;;;5.95;2.67;;;;;;;;;;5055763;28;20042;-77
2024/03/12 07:05:43;;;;;;;4.28;2.28;;;;;;;;;;5072368;28;20039;-75
2024/03/12 07:08:10;;;;;;;5.50;2.70;;;;;;;;;;5076911;28;20535;-75
2024/03/12 07:10:41;;;;;;;4.47;2.60;;;;;;;;;;5032154;28;20056;-76
2024/03/12 07:13:07;;;;;;;5.15;2.72;;;;;;;;;;5077560;28;20035;-76
2024/03/12 07:15:39;;;;;;;8.25;2.78;;;;;;;;;;5057743;28;20028;-75
2024/03/12 07:18:07;;;;;;;5.20;2.65;;;;;;;;;;5057397;28;20033;-79
2024/03/12 07:20:35;;;;;;;7.25;2.83;;;;;;;;;;5069915;28;20033;-78
2024/03/12 07:23:02;;;;;;;12.57;4.68;;;;;;;;;;5057367;28;20086;-77
2024/03/12 07:25:30;;;;;;;7.75;2.92;;;;;;;;;;5082658;28;20377;-79
2024/03/12 07:27:59;;;;;;;9.95;4.15;;;;;;;;;;5062290;28;20028;-77
2024/03/12 07:30:25;;;;;;;6.05;2.70;;;;;;;;;;5058423;28;20032;-77
2024/03/12 07:32:52;;;;;;;4.25;2.58;;;;;;;;;;5082366;28;20117;-76
2024/03/12 07:35:19;;;;;;;5.72;2.60;;;;;;;;;;5056962;28;20039;-77
2024/03/12 07:37:46;;;;;;;5.22;2.60;;;;;;;;;;5057160;28;20118;-79
2024/03/12 07:40:15;;;;;;;4.35;2.38;;;;;;;;;;5063109;28;20028;-77
2024/03/12 07:42:42;;;;;;;5.43;3.13;;;;;;;;;;5060693;28;20048;-77
2024/03/12 07:45:11;;;;;;;5.95;2.97;;;;;;;;;;5062290;28;20029;-76
2024/03/12 07:47:40;;;;;;;7.50;2.75;;;;;;;;;;5042240;28;20044;-78
2024/03/12 07:50:08;;;;;;;3.90;2.53;;;;;;;;;;5079156;28;20032;-78
2024/03/12 07:52:35;;;;;;;7.28;3.08;;;;;;;;;;5061449;28;20116;-77
2024/03/12 07:55:02;;;;;;;4.18;2.75;;;;;;;;;;5084745;28;20036;-78
2024/03/12 07:57:31;;;;;;;10.65;3.33;;;;;;;;;;5082026;28;20124;-79
2024/03/12 08:00:04;;;;;;;14.32;3.22;;;;;;;;;;5080107;28;20025;-80
2024/03/12 08:02:30;;;;;;;7.60;3.70;;;;;;;;;;5062385;28;20062;-76
2024/03/12 08:04:56;;;;;;;5.47;3.17;;;;;;;;;;5066718;28;20104;-78
2024/03/12 08:07:23;;;;;;;5.00;3.00;;;;;;;;;;5076611;28;20031;-79
2024/03/12 08:09:49;;;;;;;5.70;3.65;;;;;;;;;;5061431;28;20404;-77
2024/03/12 08:12:16;;;;;;;6.50;2.85;;;;;;;;;;5073464;28;20111;-77
2024/03/12 08:14:46;;;;;;;6.45;3.63;;;;;;;;;;5052615;28;20029;-80
2024/03/12 08:17:15;;;;;;;5.28;3.22;;;;;;;;;;5057591;28;20025;-76
2024/03/12 08:19:42;;;;;;;4.47;2.95;;;;;;;;;;5042061;28;20041;-79
2024/03/12 08:22:08;;;;;;;6.93;3.53;;;;;;;;;;5061565;28;20036;-75
2024/03/12 08:24:37;;;;;;;12.73;3.97;;;;;;;;;;5056992;28;20028;-77
2024/03/12 08:27:03;;;;;;;7.20;4.18;;;;;;;;;;5076247;28;20424;-76
2024/03/12 08:29:29;;;;;;;8.52;3.97;;;;;;;;;;5076833;28;20028;-77
2024/03/12 08:31:54;;;;;;;19.48;4.85;;;;;;;;;;5065928;28;20033;-79
2024/03/12 08:34:21;;;;;;;7.75;4.43;;;;;;;;;;5081462;28;20032;-77
2024/03/12 08:36:47;;;;;;;8.13;4.18;;;;;;;;;;5051674;28;20099;-75
2024/03/12 08:39:14;;;;;;;6.90;4.55;;;;;;;;;;5052815;28;20491;-79
2024/03/12 08:41:44;;;;;;;8.93;4.15;;;;;;;;;;5056545;28;20040;-78
2024/03/12 08:44:09;;;;;;;4.68;3.75;;;;;;;;;;5055568;28;20052;-73
2024/03/12 08:46:36;;;;;;;7.88;4.20;;;;;;;;;;5056287;28;20074;-76
2024/03/12 08:49:05;;;;;;;7.15;4.18;;;;;;;;;;5075073;28;20024;-76
2024/03/12 08:51:36;;;;;;;7.88;4.53;;;;;;;;;;5062329;28;20089;-74
2024/03/12 08:54:06;;;;;;;10.68;3.90;;;;;;;;;;5055058;28;20519;-76
2024/03/12 08:56:35;;;;;;;10.88;4.93;;;;;;;;;;5062938;28;20040;-74
2024/03/12 08:59:09;;;;;;;7.93;4.65;;;;;;;;;;5056582;28;20051;-77
2024/03/12 09:01:34;;;;;;;11.05;4.70;;;;;;;;;;5037459;28;20047;-75
2024/03/12 09:04:07;;;;;;;6.28;4.53;;;;;;;;;;5072893;28;20032;-75
2024/03/12 09:06:35;;;;;;;9.70;4.65;;;;;;;;;;5075233;28;20034;-76
2024/03/12 09:09:00;;;;;;;7.05;4.45;;;;;;;;;;5039744;28;20040;-77
2024/03/12 09:11:26;;;;;;;7.20;5.13;;;;;;;;;;5067970;28;20043;-75
2024/03/12 09:13:54;;;;;;;6.72;5.10;;;;;;;;;;5083667;28;20032;-75
2024/03/12 09:16:19;;;;;;;10.68;5.35;;;;;;;;;;5061950;28;20059;-74
2024/03/12 09:18:45;;;;;;;9.25;5.47;;;;;;;;;;5072899;28;20067;-74
2024/03/12 09:21:12;;;;;;;7.65;5.18;;;;;;;;;;5073299;28;20464;-73
2024/03/12 09:23:39;;;;;;;11.77;5.28;;;;;;;;;;5049532;28;20052;-76
2024/03/12 09:26:06;;;;;;;9.80;5.65;;;;;;;;;;5070175;28;20043;-75
2024/03/12 09:28:36;;;;;;;9.68;4.50;;;;;;;;;;5050165;28;20036;-74
2024/03/12 09:31:08;;;;;;;6.95;5.30;;;;;;;;;;5077673;28;20032;-74
2024/03/12 09:33:34;;;;;;;6.50;4.68;;;;;;;;;;5059029;28;20043;-75
2024/03/12 09:36:00;;;;;;;9.90;6.10;;;;;;;;;;5071456;28;20078;-76
2024/03/12 09:38:30;;;;;;;7.18;5.25;;;;;;;;;;5067166;28;20032;-76
2024/03/12 09:41:00;;;;;;;7.80;5.22;;;;;;;;;;5073860;28;20043;-74
2024/03/12 09:43:28;;;;;;;9.45;5.25;;;;;;;;;;5076623;28;20052;-74
2024/03/12 09:45:56;;;;;;;8.35;5.30;;;;;;;;;;5056246;28;20462;-75
2024/03/12 09:48:22;;;;;;;8.95;5.55;;;;;;;;;;5055616;28;20028;-75
2024/03/12 09:50:51;;;;;;;12.30;5.60;;;;;;;;;;5060588;28;20067;-73
2024/03/12 09:53:19;;;;;;;10.02;5.88;;;;;;;;;;5077076;28;20099;-76
2024/03/12 09:55:45;;;;;;;9.95;5.75;;;;;;;;;;5086203;28;20091;-75
2024/03/12 09:58:12;;;;;;;12.63;7.15;;;;;;;;;;5057468;28;20193;-74
2024/03/12 10:00:38;;;;;;;7.75;5.53;;;;;;;;;;5055129;28;20024;-75
2024/03/12 10:03:05;;;;;;;15.18;6.80;;;;;;;;;;5057243;28;20024;-75
2024/03/12 10:05:33;;;;;;;8.80;5.50;;;;;;;;;;5057590;28;20039;-77
2024/03/12 10:08:17;;;;;;;10.60;6.43;;;;;;;;;;5054292;28;20040;-73
2024/03/12 10:10:45;;;;;;;7.13;4.55;;;;;;;;;;5061193;28;20024;-75
2024/03/12 10:13:14;;;;;;;7.20;5.15;;;;;;;;;;5077850;28;20113;-75
2024/03/12 10:15:59;;;;;;;9.50;5.93;;;;;;;;;;5073123;28;20783;-75
2024/03/12 10:18:34;;;;;;;8.43;5.32;;;;;;;;;;5076280;28;20484;-73
2024/03/12 10:21:01;;;;;;;9.70;5.63;;;;;;;;;;5056443;28;20109;-75
2024/03/12 10:23:29;;;;;;;7.95;5.35;;;;;;;;;;5055457;28;20044;-74
2024/03/12 10:26:16;;;;;;;8.18;5.40;;;;;;;;;;5053101;28;20025;-75
2024/03/12 10:28:50;;;;;;;9.85;6.03;;;;;;;;;;5057954;28;20036;-73
2024/03/12 10:31:19;;;;;;;7.75;5.20;;;;;;;;;;5063356;28;20442;-74
2024/03/12 10:33:48;;;;;;;8.32;5.28;;;;;;;;;;5085027;28;20485;-74
2024/03/12 10:36:28;;;;;;;8.88;6.13;;;;;;;;;;5048227;28;20422;-74
2024/03/12 10:38:54;;;;;;;8.38;5.68;;;;;;;;;;5071734;28;20028;-74
2024/03/12 10:41:20;;;;;;;9.98;6.25;;;;;;;;;;5040505;28;20044;-75
2024/03/12 10:43:52;;;;;;;7.88;5.00;;;;;;;;;;5055921;28;20035;-74
2024/03/12 10:46:19;;;;;;;8.25;5.22;;;;;;;;;;5058542;28;20033;-74
2024/03/12 10:48:50;;;;;;;9.88;5.70;;;;;;;;;;5056477;28;20040;-73
2024/03/12 10:51:17;;;;;;;8.17;5.33;;;;;;;;;;5047687;28;20035;-75
2024/03/12 10:53:49;;;;;;;8.95;5.38;;;;;;;;;;5043790;28;20111;-73
2024/03/12 10:56:18;;;;;;;;;;;;;;;;;;5061227;28;20043;-75
2024/03/12 10:58:48;;;;;;;7.22;5.10;;;;;;;;;;5068566;28;19913;-76
2024/03/12 11:01:18;;;;;;;7.10;4.72;;;;;;;;;;5061770;28;20032;-75
2024/03/12 11:03:44;;;;;;;7.65;5.18;;;;;;;;;;5039110;28;20120;-77
2024/03/12 11:06:13;;;;;;;8.35;5.22;;;;;;;;;;5057095;28;20111;-75
2024/03/12 11:08:39;;;;;;;8.38;4.68;;;;;;;;;;5058341;28;20035;-75
2024/03/12 11:11:09;;;;;;;6.82;4.72;;;;;;;;;;5056451;28;20036;-74
2024/03/12 11:13:35;;;;;;;5.60;4.50;;;;;;;;;;5057818;28;20032;-74
2024/03/12 11:16:17;;;;;;;11.18;5.10;;;;;;;;;;5054672;28;20029;-75
2024/03/12 11:18:48;;;;;;;12.23;6.10;;;;;;;;;;5059220;28;20107;-74
2024/03/12 11:21:30;;;;;;;5.57;4.45;;;;;;;;;;5057990;28;20028;-75
2024/03/12 11:23:58;;;;;;;6.70;3.55;;;;;;;;;;5065036;28;20043;-73
2024/03/12 11:26:29;;;;;;;6.70;3.83;;;;;;;;;;5053313;28;20664;-76
2024/03/12 11:28:57;;;;;;;6.22;3.28;;;;;;;;;;5049697;28;20115;-73
2024/03/12 11:31:24;;;;;;;7.72;3.17;;;;;;;;;;5074417;28;20028;-73
2024/03/12 11:33:54;;;;;;;5.40;3.47;;;;;;;;;;5060421;28;20028;-76
2024/03/12 11:36:26;;;;;;;8.18;3.45;;;;;;;;;;5050634;28;20384;-73
2024/03/12 11:38:52;;;;;;;7.47;3.63;;;;;;;;;;5053589;28;20032;-75
2024/03/12 11:41:49;;;;;;;7.35;3.38;;;;;;;;;;5046792;28;20047;-75
2024/03/12 11:44:54;;;;;;;5.32;2.88;;;;;;;;;;5049115;28;20024;-76
2024/03/12 11:47:36;;;;;;;9.10;3.58;;;;;;;;;;5073497;28;20036;-73
2024/03/12 11:50:07;;;;;;;3.65;3.00;;;;;;;;;;5053938;28;20111;-74
2024/03/12 11:52:34;;;;;;;3.20;2.63;;;;;;;;;;5073428;28;20105;-75
2024/03/12 11:55:03;;;;;;;6.20;3.17;;;;;;;;;;5073000;28;20051;-76
2024/03/12 11:57:30;;;;;;;7.38;3.38;;;;;;;;;;5055560;28;20361;-74
2024/03/12 11:59:58;;;;;;;3.15;2.50;;;;;;;;;;5059682;28;20142;-73
2024/03/12 12:02:28;;;;;;;4.05;2.50;;;;;;;;;;5058002;28;20510;-73
2024/03/12 12:04:56;;;;;;;3.33;2.67;;;;;;;;;;5077715;28;20488;-74
2024/03/12 12:07:25;;;;;;;3.78;2.47;;;;;;;;;;5052631;28;20040;-75
2024/03/12 12:09:52;;;;;;;4.75;3.03;;;;;;;;;;5060864;28;20123;-74
2024/03/12 12:12:21;;;;;;;6.13;3.03;;;;;;;;;;5062441;28;20058;-74
2024/03/12 12:14:52;;;;;;;4.70;2.45;;;;;;;;;;5063730;28;20039;-79
2024/03/12 12:17:24;;;;;;;5.30;2.55;;;;;;;;;;5060292;28;20032;-75
2024/03/12 12:20:16;;;;;;;5.60;3.10;;;;;;;;;;5073902;28;20125;-77
2024/03/12 12:22:49;;;;;;;2.42;2.08;;;;;;;;;;5075603;28;20031;-76
2024/03/12 12:25:19;;;;;;;5.88;2.10;;;;;;;;;;5066035;28;20032;-75
2024/03/12 12:27:46;;;;;;;3.88;2.40;;;;;;;;;;5043387;28;20093;-74
2024/03/12 12:30:14;;;;;;;4.10;2.50;;;;;;;;;;5079903;28;20025;-79
2024/03/12 12:32:59;;;;;;;2.95;2.38;;;;;;;;;;5078067;28;20580;-73
2024/03/12 12:35:28;;;;;;;5.05;2.40;;;;;;;;;;5082125;28;20040;-73
2024/03/12 12:38:04;;;;;;;5.90;2.63;;;;;;;;;;5059434;28;20051;-73
2024/03/12 12:40:44;;;;;;;4.50;2.25;;;;;;;;;;5083545;28;20075;-76
2024/03/12 12:43:17;;;;;;;3.10;2.17;;;;;;;;;;5057513;28;20042;-74
2024/03/12 12:45:46;;;;;;;3.88;2.35;;;;;;;;;;5082429;28;20076;-75
2024/03/12 12:48:14;;;;;;;4.05;2.33;;;;;;;;;;5062982;28;20074;-76
2024/03/12 12:50:39;;;;;;;3.67;2.58;;;;;;;;;;5069763;28;20508;-74
2024/03/12 12:53:08;;;;;;;2.65;2.22;;;;;;;;;;5081395;28;20056;-76
2024/03/12 12:55:36;;;;;;;7.60;2.88;;;;;;;;;;5062366;28;20024;-76
2024/03/12 12:58:06;;;;;;;18.23;6.85;;;;;;;;;;5088048;28;20036;-76
2024/03/12 13:00:37;;;;;;;4.72;3.38;;;;;;;;;;5061990;28;20043;-75
2024/03/12 13:03:16;;;;;;;3.95;2.63;;;;;;;;;;5090764;28;20028;-75
2024/03/12 13:05:44;;;;;;;5.30;2.78;;;;;;;;;;5060056;28;20024;-76
2024/03/12 13:08:31;;;;;;;7.22;3.35;;;;;;;;;;5069267;28;20043;-76
2024/03/12 13:11:08;;;;;;;4.13;2.70;;;;;;;;;;5059778;28;20031;-75
2024/03/12 13:13:38;;;;;;;7.13;4.13;;;;;;;;;;5073835;28;20024;-75
2024/03/12 13:16:15;;;;;;;4.57;3.00;;;;;;;;;;5058542;28;20036;-75
2024/03/12 13:18:52;;;;;;;5.10;2.88;;;;;;;;;;5077673;28;20035;-73
2024/03/12 13:21:20;;;;;;;6.63;3.13;;;;;;;;;;5061214;28;20012;-78
2024/03/12 13:23:46;;;;;;;5.55;2.88;;;;;;;;;;5082221;28;20039;-76
2024/03/12 13:26:14;;;;;;;6.72;4.38;;;;;;;;;;5063899;28;20113;-78
2024/03/12 13:28:53;;;;;;;5.20;3.30;;;;;;;;;;5058887;28;20129;-81
2024/03/12 13:31:21;;;;;;;5.60;3.25;;;;;;;;;;5072600;28;20040;-76
2024/03/12 13:33:48;;;;;;;5.20;3.53;;;;;;;;;;5076074;28;20025;-77
2024/03/12 13:36:14;;;;;;;4.22;3.35;;;;;;;;;;5063836;28;20040;-76
2024/03/12 13:38:40;;;;;;;5.15;3.22;;;;;;;;;;5074827;28;20480;-75
2024/03/12 13:41:10;;;;;;;6.85;4.03;;;;;;;;;;5076868;28;20020;-73
2024/03/12 13:43:39;;;;;;;6.30;3.53;;;;;;;;;;5075649;28;20111;-73
2024/03/12 13:46:06;;;;;;;8.50;3.92;;;;;;;;;;5051186;28;20055;-74
2024/03/12 13:48:36;;;;;;;4.10;3.35;;;;;;;;;;5075602;28;20103;-77
2024/03/12 13:51:21;;;;;;;7.75;4.75;;;;;;;;;;5056581;28;20495;-76
2024/03/12 13:53:48;;;;;;;4.97;3.97;;;;;;;;;;5077562;28;20036;-75
2024/03/12 13:56:14;;;;;;;8.90;5.00;;;;;;;;;;5073846;28;20677;-75
2024/03/12 13:58:40;;;;;;;7.13;3.78;;;;;;;;;;5072213;28;20123;-75
2024/03/12 14:01:11;;;;;;;5.22;4.10;;;;;;;;;;5077856;28;20059;-76
2024/03/12 14:03:39;;;;;;;5.85;3.70;;;;;;;;;;5073345;28;20035;-78
2024/03/12 14:06:08;;;;;;;4.22;3.83;;;;;;;;;;5070839;28;20544;-76
2024/03/12 14:08:34;;;;;;;5.35;3.67;;;;;;;;;;5073284;28;20023;-75
2024/03/12 14:11:00;;;;;;;5.57;4.28;;;;;;;;;;5047297;28;20037;-76
2024/03/12 14:13:27;;;;;;;11.13;6.35;;;;;;;;;;5058972;28;20651;-75
2024/03/12 14:15:53;;;;;;;5.05;3.35;;;;;;;;;;5075786;28;20028;-75
2024/03/12 14:18:23;;;;;;;4.78;3.70;;;;;;;;;;5070676;28;20484;-78
2024/03/12 14:20:50;;;;;;;8.52;3.63;;;;;;;;;;5065635;28;20036;-75
2024/03/12 14:23:18;;;;;;;4.55;4.15;;;;;;;;;;5081879;28;20020;-76
2024/03/12 14:25:44;;;;;;;5.40;3.90;;;;;;;;;;5061067;28;20122;-76
2024/03/12 14:28:10;;;;;;;6.50;3.40;;;;;;;;;;5060843;28;20058;-74
2024/03/12 14:30:37;;;;;;;9.20;4.03;;;;;;;;;;5077963;28;20024;-76
2024/03/12 14:33:03;;;;;;;7.45;3.35;;;;;;;;;;5083664;28;20099;-76
2024/03/12 14:35:29;;;;;;;8.20;3.90;;;;;;;;;;5065219;28;20024;-77
2024/03/12 14:37:55;;;;;;;4.53;3.53;;;;;;;;;;5058988;28;20033;-76
2024/03/12 14:40:21;;;;;;;9.45;3.90;;;;;;;;;;5086161;28;20422;-77
2024/03/12 14:42:48;;;;;;;5.63;3.22;;;;;;;;;;5081655;28;20373;-75
2024/03/12 14:45:16;;;;;;;10.00;3.40;;;;;;;;;;5081515;28;20041;-75
2024/03/12 14:47:41;;;;;;;5.22;3.38;;;;;;;;;;5061283;28;20016;-76
2024/03/12 14:50:14;;;;;;;8.32;4.00;;;;;;;;;;5063983;28;20166;-75
2024/03/12 14:52:43;;;;;;;7.43;3.53;;;;;;;;;;5073717;28;20463;-74
2024/03/12 14:55:10;;;;;;;5.60;3.67;;;;;;;;;;5057758;28;20124;-76
2024/03/12 14:57:37;;;;;;;6.15;3.75;;;;;;;;;;5051029;28;20020;-76
2024/03/12 15:00:08;;;;;;;11.55;7.97;;;;;;;;;;5072052;28;20028;-76